sensor_id;sensor_type;location;lat;lon;timestamp;pressure;altitude;pressure_sealevel;temperature;humidity
71145;BME280;58812;47.698;17.726;2023-05-07T00:00:16;100259.53;;;12.52;100.00
71145;BME280;58812;47.698;17.726;2023-05-07T00:02:44;100269.94;;;12.55;100.00
71145;BME280;58812;47.698;17.726;2023-05-07T00:05:10;100265.59;;;12.54;100.00
71145;BME280;58812;47.698;17.726;2023-05-07T00:07:35;100272.34;;;12.59;100.00
71145;BME280;58812;47.698;17.726;2023-05-07T00:10:02;100274.47;;;12.55;100.00
71145;BME280;58812;47.698;17.726;2023-05-07T00:12:27;100273.09;;;12.51;100.00
71145;BME280;58812;47.698;17.726;2023-05-07T00:14:52;100279.53;;;12.58;100.00
71145;BME280;58812;47.698;17.726;2023-05-07T00:17:18;100282.72;;;12.62;100.00
71145;BME280;58812;47.698;17.726;2023-05-07T00:19:43;100287.09;;;12.63;100.00
71145;BME280;58812;47.698;17.726;2023-05-07T00:22:09;100280.87;;;12.62;100.00
71145;BME280;58812;47.698;17.726;2023-05-07T00:24:34;100285.41;;;12.62;100.00
71145;BME280;58812;47.698;17.726;2023-05-07T00:26:59;100276.22;;;12.64;100.00
71145;BME280;58812;47.698;17.726;2023-05-07T00:29:25;100274.37;;;12.65;100.00
71145;BME280;58812;47.698;17.726;2023-05-07T00:31:51;100273.53;;;12.64;100.00
71145;BME280;58812;47.698;17.726;2023-05-07T00:34:16;100269.50;;;12.68;100.00
71145;BME280;58812;47.698;17.726;2023-05-07T00:36:41;100274.87;;;12.68;100.00
71145;BME280;58812;47.698;17.726;2023-05-07T00:39:07;100277.25;;;12.71;100.00
71145;BME280;58812;47.698;17.726;2023-05-07T00:41:32;100270.87;;;12.72;100.00
71145;BME280;58812;47.698;17.726;2023-05-07T00:43:58;100265.97;;;12.68;100.00
71145;BME280;58812;47.698;17.726;2023-05-07T00:46:23;100270.31;;;12.61;100.00
71145;BME280;58812;47.698;17.726;2023-05-07T00:48:53;100272.25;;;12.50;100.00
71145;BME280;58812;47.698;17.726;2023-05-07T00:51:18;100275.66;;;12.52;100.00
71145;BME280;58812;47.698;17.726;2023-05-07T00:53:45;100273.28;;;12.49;100.00
71145;BME280;58812;47.698;17.726;2023-05-07T00:56:11;100267.72;;;12.51;100.00
71145;BME280;58812;47.698;17.726;2023-05-07T00:58:37;100276.31;;;12.54;100.00
71145;BME280;58812;47.698;17.726;2023-05-07T01:01:03;100267.13;;;12.57;100.00
71145;BME280;58812;47.698;17.726;2023-05-07T01:03:28;100267.13;;;12.57;100.00
71145;BME280;58812;47.698;17.726;2023-05-07T01:05:56;100277.00;;;12.56;100.00
71145;BME280;58812;47.698;17.726;2023-05-07T01:08:23;100260.87;;;12.56;100.00
71145;BME280;58812;47.698;17.726;2023-05-07T01:10:50;100268.59;;;12.51;100.00
71145;BME280;58812;47.698;17.726;2023-05-07T01:13:17;100273.28;;;12.49;100.00
71145;BME280;58812;47.698;17.726;2023-05-07T01:15:43;100270.91;;;12.46;100.00
71145;BME280;58812;47.698;17.726;2023-05-07T01:18:09;100275.25;;;12.39;100.00
71145;BME280;58812;47.698;17.726;2023-05-07T01:20:34;100267.66;;;12.35;100.00
71145;BME280;58812;47.698;17.726;2023-05-07T01:23:00;100282.91;;;12.34;100.00
71145;BME280;58812;47.698;17.726;2023-05-07T01:25:26;100277.19;;;12.29;100.00
71145;BME280;58812;47.698;17.726;2023-05-07T01:27:52;100275.41;;;12.20;100.00
71145;BME280;58812;47.698;17.726;2023-05-07T01:30:18;100279.44;;;12.16;100.00
71145;BME280;58812;47.698;17.726;2023-05-07T01:33:09;100282.03;;;12.08;100.00
71145;BME280;58812;47.698;17.726;2023-05-07T01:35:39;100276.16;;;12.04;100.00
71145;BME280;58812;47.698;17.726;2023-05-07T01:38:06;100277.63;;;11.98;100.00
71145;BME280;58812;47.698;17.726;2023-05-07T01:40:33;100273.41;;;11.96;100.00
71145;BME280;58812;47.698;17.726;2023-05-07T01:43:01;100280.94;;;11.92;100.00
71145;BME280;58812;47.698;17.726;2023-05-07T01:45:27;100276.88;;;11.88;100.00
71145;BME280;58812;47.698;17.726;2023-05-07T01:47:53;100279.16;;;11.83;100.00
71145;BME280;58812;47.698;17.726;2023-05-07T01:50:20;100270.53;;;11.80;100.00
71145;BME280;58812;47.698;17.726;2023-05-07T01:52:47;100269.84;;;11.77;100.00
71145;BME280;58812;47.698;17.726;2023-05-07T01:55:12;100267.56;;;11.65;100.00
71145;BME280;58812;47.698;17.726;2023-05-07T01:57:38;100267.84;;;11.62;100.00
71145;BME280;58812;47.698;17.726;2023-05-07T02:00:04;100262.12;;;11.57;100.00
71145;BME280;58812;47.698;17.726;2023-05-07T02:02:30;100267.78;;;11.54;100.00
71145;BME280;58812;47.698;17.726;2023-05-07T02:04:56;100268.41;;;11.47;100.00
71145;BME280;58812;47.698;17.726;2023-05-07T02:07:21;100261.34;;;11.46;100.00
71145;BME280;58812;47.698;17.726;2023-05-07T02:09:47;100268.94;;;11.33;100.00
71145;BME280;58812;47.698;17.726;2023-05-07T02:12:12;100265.69;;;11.30;100.00
71145;BME280;58812;47.698;17.726;2023-05-07T02:14:37;100266.88;;;11.27;100.00
71145;BME280;58812;47.698;17.726;2023-05-07T02:17:03;100265.06;;;11.18;100.00
71145;BME280;58812;47.698;17.726;2023-05-07T02:19:28;100265.00;;;11.10;100.00
71145;BME280;58812;47.698;17.726;2023-05-07T02:21:54;100262.16;;;11.11;100.00
71145;BME280;58812;47.698;17.726;2023-05-07T02:24:19;100274.41;;;11.14;100.00
71145;BME280;58812;47.698;17.726;2023-05-07T02:26:45;100277.22;;;11.12;100.00
71145;BME280;58812;47.698;17.726;2023-05-07T02:29:10;100272.03;;;11.11;100.00
71145;BME280;58812;47.698;17.726;2023-05-07T02:31:35;100266.97;;;11.08;100.00
71145;BME280;58812;47.698;17.726;2023-05-07T02:34:01;100272.47;;;11.06;100.00
71145;BME280;58812;47.698;17.726;2023-05-07T02:36:26;100269.09;;;11.04;100.00
71145;BME280;58812;47.698;17.726;2023-05-07T02:38:52;100273.22;;;10.99;100.00
71145;BME280;58812;47.698;17.726;2023-05-07T02:41:18;100267.16;;;10.96;100.00
71145;BME280;58812;47.698;17.726;2023-05-07T02:43:43;100272.66;;;10.95;100.00
71145;BME280;58812;47.698;17.726;2023-05-07T02:46:09;100271.28;;;10.91;100.00
71145;BME280;58812;47.698;17.726;2023-05-07T02:48:34;100269.06;;;10.86;100.00
71145;BME280;58812;47.698;17.726;2023-05-07T02:51:00;100263.16;;;10.83;100.00
71145;BME280;58812;47.698;17.726;2023-05-07T02:53:26;100261.16;;;10.85;100.00
71145;BME280;58812;47.698;17.726;2023-05-07T02:55:56;100264.69;;;10.85;100.00
71145;BME280;58812;47.698;17.726;2023-05-07T02:58:22;100276.69;;;10.81;100.00
71145;BME280;58812;47.698;17.726;2023-05-07T03:00:47;100268.25;;;10.76;100.00
71145;BME280;58812;47.698;17.726;2023-05-07T03:03:13;100257.56;;;10.66;100.00
71145;BME280;58812;47.698;17.726;2023-05-07T03:05:39;100267.44;;;10.66;100.00
71145;BME280;58812;47.698;17.726;2023-05-07T03:08:04;100267.75;;;10.63;100.00
71145;BME280;58812;47.698;17.726;2023-05-07T03:10:30;100269.88;;;10.59;100.00
71145;BME280;58812;47.698;17.726;2023-05-07T03:12:55;100284.41;;;10.57;100.00
71145;BME280;58812;47.698;17.726;2023-05-07T03:15:21;100279.88;;;10.57;100.00
71145;BME280;58812;47.698;17.726;2023-05-07T03:17:47;100278.31;;;10.55;100.00
71145;BME280;58812;47.698;17.726;2023-05-07T03:20:13;100276.94;;;10.51;100.00
71145;BME280;58812;47.698;17.726;2023-05-07T03:22:38;100282.72;;;10.46;100.00
71145;BME280;58812;47.698;17.726;2023-05-07T03:25:05;100287.53;;;10.42;100.00
71145;BME280;58812;47.698;17.726;2023-05-07T03:27:30;100291.75;;;10.45;100.00
71145;BME280;58812;47.698;17.726;2023-05-07T03:29:56;100290.06;;;10.44;100.00
71145;BME280;58812;47.698;17.726;2023-05-07T03:32:21;100299.13;;;10.33;100.00
71145;BME280;58812;47.698;17.726;2023-05-07T03:34:47;100302.47;;;10.26;100.00
71145;BME280;58812;47.698;17.726;2023-05-07T03:37:12;100291.66;;;10.27;100.00
71145;BME280;58812;47.698;17.726;2023-05-07T03:39:37;100294.59;;;10.24;100.00
71145;BME280;58812;47.698;17.726;2023-05-07T03:42:03;100294.59;;;10.24;100.00
71145;BME280;58812;47.698;17.726;2023-05-07T03:44:28;100307.84;;;10.16;100.00
71145;BME280;58812;47.698;17.726;2023-05-07T03:46:54;100305.84;;;10.18;100.00
71145;BME280;58812;47.698;17.726;2023-05-07T03:49:20;100299.97;;;10.24;100.00
71145;BME280;58812;47.698;17.726;2023-05-07T03:51:46;100300.69;;;10.26;100.00
71145;BME280;58812;47.698;17.726;2023-05-07T03:54:11;100298.53;;;10.30;100.00
71145;BME280;58812;47.698;17.726;2023-05-07T03:56:37;100290.66;;;10.28;100.00
71145;BME280;58812;47.698;17.726;2023-05-07T03:59:02;100296.28;;;10.25;100.00
71145;BME280;58812;47.698;17.726;2023-05-07T04:01:28;100299.69;;;10.27;100.00
71145;BME280;58812;47.698;17.726;2023-05-07T04:03:53;100299.69;;;10.27;100.00
71145;BME280;58812;47.698;17.726;2023-05-07T04:06:18;100309.41;;;10.28;100.00
71145;BME280;58812;47.698;17.726;2023-05-07T04:08:44;100306.16;;;10.34;100.00
71145;BME280;58812;47.698;17.726;2023-05-07T04:11:09;100308.81;;;10.44;100.00
71145;BME280;58812;47.698;17.726;2023-05-07T04:13:35;100319.03;;;10.58;100.00
71145;BME280;58812;47.698;17.726;2023-05-07T04:16:02;100322.37;;;10.70;100.00
71145;BME280;58812;47.698;17.726;2023-05-07T04:18:28;100314.69;;;10.94;100.00
71145;BME280;58812;47.698;17.726;2023-05-07T04:20:53;100312.31;;;11.19;100.00
71145;BME280;58812;47.698;17.726;2023-05-07T04:23:19;100315.25;;;11.43;100.00
71145;BME280;58812;47.698;17.726;2023-05-07T04:25:44;100312.38;;;11.72;100.00
71145;BME280;58812;47.698;17.726;2023-05-07T04:28:11;100308.19;;;12.06;100.00
71145;BME280;58812;47.698;17.726;2023-05-07T04:30:37;100309.56;;;12.27;100.00
71145;BME280;58812;47.698;17.726;2023-05-07T04:33:03;100310.69;;;12.51;100.00
71145;BME280;58812;47.698;17.726;2023-05-07T04:35:28;100323.12;;;12.78;100.00
71145;BME280;58812;47.698;17.726;2023-05-07T04:37:54;100321.19;;;12.96;100.00
71145;BME280;58812;47.698;17.726;2023-05-07T04:40:19;100324.66;;;13.15;100.00
71145;BME280;58812;47.698;17.726;2023-05-07T04:42:45;100332.50;;;13.08;100.00
71145;BME280;58812;47.698;17.726;2023-05-07T04:45:10;100344.06;;;13.00;100.00
71145;BME280;58812;47.698;17.726;2023-05-07T04:47:37;100340.38;;;13.01;100.00
71145;BME280;58812;47.698;17.726;2023-05-07T04:50:03;100333.62;;;13.23;100.00
71145;BME280;58812;47.698;17.726;2023-05-07T04:52:29;100344.34;;;13.66;100.00
71145;BME280;58812;47.698;17.726;2023-05-07T04:54:54;100343.25;;;14.01;100.00
71145;BME280;58812;47.698;17.726;2023-05-07T04:57:19;100341.03;;;14.29;100.00
71145;BME280;58812;47.698;17.726;2023-05-07T04:59:45;100346.59;;;14.43;100.00
71145;BME280;58812;47.698;17.726;2023-05-07T05:02:10;100349.81;;;14.63;100.00
71145;BME280;58812;47.698;17.726;2023-05-07T05:04:36;100359.34;;;14.90;100.00
71145;BME280;58812;47.698;17.726;2023-05-07T05:07:02;100352.59;;;15.03;100.00
71145;BME280;58812;47.698;17.726;2023-05-07T05:09:29;100359.63;;;15.12;100.00
71145;BME280;58812;47.698;17.726;2023-05-07T05:11:55;100354.44;;;14.94;100.00
71145;BME280;58812;47.698;17.726;2023-05-07T05:14:20;100357.22;;;14.61;100.00
71145;BME280;58812;47.698;17.726;2023-05-07T05:16:45;100346.47;;;14.53;100.00
71145;BME280;58812;47.698;17.726;2023-05-07T05:19:11;100349.47;;;14.34;100.00
71145;BME280;58812;47.698;17.726;2023-05-07T05:21:36;100347.12;;;14.06;100.00
71145;BME280;58812;47.698;17.726;2023-05-07T05:24:02;100349.44;;;13.85;100.00
71145;BME280;58812;47.698;17.726;2023-05-07T05:26:27;100350.56;;;13.74;100.00
71145;BME280;58812;47.698;17.726;2023-05-07T05:28:53;100349.88;;;13.56;100.00
71145;BME280;58812;47.698;17.726;2023-05-07T05:31:18;100355.91;;;13.50;100.00
71145;BME280;58812;47.698;17.726;2023-05-07T05:33:43;100363.78;;;13.51;100.00
71145;BME280;58812;47.698;17.726;2023-05-07T05:36:10;100360.94;;;13.10;100.00
71145;BME280;58812;47.698;17.726;2023-05-07T05:38:36;100363.75;;;13.09;100.00
71145;BME280;58812;47.698;17.726;2023-05-07T05:41:01;100371.88;;;13.17;100.00
71145;BME280;58812;47.698;17.726;2023-05-07T05:43:27;100378.81;;;13.28;100.00
71145;BME280;58812;47.698;17.726;2023-05-07T05:45:52;100376.50;;;13.33;100.00
71145;BME280;58812;47.698;17.726;2023-05-07T05:48:17;100380.84;;;13.26;100.00
71145;BME280;58812;47.698;17.726;2023-05-07T05:50:43;100386.41;;;13.32;100.00
71145;BME280;58812;47.698;17.726;2023-05-07T05:53:08;100398.28;;;13.22;100.00
71145;BME280;58812;47.698;17.726;2023-05-07T05:55:34;100390.84;;;13.16;100.00
71145;BME280;58812;47.698;17.726;2023-05-07T05:58:00;100384.31;;;12.92;100.00
71145;BME280;58812;47.698;17.726;2023-05-07T06:00:26;100383.00;;;12.96;100.00
71145;BME280;58812;47.698;17.726;2023-05-07T06:02:52;100369.28;;;12.99;100.00
71145;BME280;58812;47.698;17.726;2023-05-07T06:05:17;100377.06;;;12.84;100.00
71145;BME280;58812;47.698;17.726;2023-05-07T06:07:43;100378.06;;;12.83;100.00
71145;BME280;58812;47.698;17.726;2023-05-07T06:10:08;100379.19;;;12.99;100.00
71145;BME280;58812;47.698;17.726;2023-05-07T06:12:34;100389.87;;;12.91;100.00
71145;BME280;58812;47.698;17.726;2023-05-07T06:14:59;100396.03;;;12.83;100.00
71145;BME280;58812;47.698;17.726;2023-05-07T06:17:24;100400.41;;;12.58;100.00
71145;BME280;58812;47.698;17.726;2023-05-07T06:19:51;100395.66;;;12.78;100.00
71145;BME280;58812;47.698;17.726;2023-05-07T06:22:16;100389.66;;;12.84;100.00
71145;BME280;58812;47.698;17.726;2023-05-07T06:24:41;100390.66;;;12.83;100.00
71145;BME280;58812;47.698;17.726;2023-05-07T06:27:07;100390.69;;;12.91;100.00
71145;BME280;58812;47.698;17.726;2023-05-07T06:29:32;100400.03;;;12.79;100.00
71145;BME280;58812;47.698;17.726;2023-05-07T06:32:12;100401.06;;;12.86;100.00
71145;BME280;58812;47.698;17.726;2023-05-07T06:34:38;100403.13;;;12.92;100.00
71145;BME280;58812;47.698;17.726;2023-05-07T06:37:03;100406.56;;;13.02;100.00
71145;BME280;58812;47.698;17.726;2023-05-07T06:39:29;100399.81;;;12.98;100.00
71145;BME280;58812;47.698;17.726;2023-05-07T06:41:54;100407.56;;;13.01;100.00
71145;BME280;58812;47.698;17.726;2023-05-07T06:44:20;100411.00;;;13.12;100.00
71145;BME280;58812;47.698;17.726;2023-05-07T06:46:45;100411.28;;;13.08;100.00
71145;BME280;58812;47.698;17.726;2023-05-07T06:49:12;100408.94;;;13.05;100.00
71145;BME280;58812;47.698;17.726;2023-05-07T06:51:38;100419.72;;;13.14;100.00
71145;BME280;58812;47.698;17.726;2023-05-07T06:54:03;100421.75;;;13.12;100.00
71145;BME280;58812;47.698;17.726;2023-05-07T06:56:30;100425.53;;;13.27;100.00
71145;BME280;58812;47.698;17.726;2023-05-07T06:58:55;100428.50;;;13.42;100.00
71145;BME280;58812;47.698;17.726;2023-05-07T07:01:21;100424.72;;;13.69;100.00
71145;BME280;58812;47.698;17.726;2023-05-07T07:03:46;100424.94;;;13.83;100.00
71145;BME280;58812;47.698;17.726;2023-05-07T07:06:12;100423.75;;;13.78;100.00
71145;BME280;58812;47.698;17.726;2023-05-07T07:08:37;100429.91;;;13.62;100.00
71145;BME280;58812;47.698;17.726;2023-05-07T07:11:04;100423.75;;;13.86;100.00
71145;BME280;58812;47.698;17.726;2023-05-07T07:13:30;100431.41;;;14.07;100.00
71145;BME280;58812;47.698;17.726;2023-05-07T07:15:55;100432.41;;;14.06;100.00
71145;BME280;58812;47.698;17.726;2023-05-07T07:18:20;100435.62;;;14.26;100.00
71145;BME280;58812;47.698;17.726;2023-05-07T07:20:46;100439.34;;;14.33;100.00
71145;BME280;58812;47.698;17.726;2023-05-07T07:23:11;100439.16;;;14.26;100.00
71145;BME280;58812;47.698;17.726;2023-05-07T07:25:37;100436.66;;;14.25;100.00
71145;BME280;58812;47.698;17.726;2023-05-07T07:28:02;100437.00;;;14.38;100.00
71145;BME280;58812;47.698;17.726;2023-05-07T07:30:28;100440.09;;;14.59;100.00
71145;BME280;58812;47.698;17.726;2023-05-07T07:32:54;100437.37;;;14.67;100.00
71145;BME280;58812;47.698;17.726;2023-05-07T07:35:20;100446.81;;;14.80;100.00
71145;BME280;58812;47.698;17.726;2023-05-07T07:37:45;100448.84;;;14.78;100.00
71145;BME280;58812;47.698;17.726;2023-05-07T07:40:11;100444.44;;;15.01;100.00
71145;BME280;58812;47.698;17.726;2023-05-07T07:42:37;100445.06;;;15.11;100.00
71145;BME280;58812;47.698;17.726;2023-05-07T07:45:02;100440.34;;;15.21;100.00
71145;BME280;58812;47.698;17.726;2023-05-07T07:47:28;100438.06;;;15.41;100.00
71145;BME280;58812;47.698;17.726;2023-05-07T07:49:53;100445.12;;;15.50;100.00
71145;BME280;58812;47.698;17.726;2023-05-07T07:52:19;100450.53;;;15.50;100.00
71145;BME280;58812;47.698;17.726;2023-05-07T07:54:45;100454.44;;;15.40;100.00
71145;BME280;58812;47.698;17.726;2023-05-07T07:57:10;100458.25;;;15.70;100.00
71145;BME280;58812;47.698;17.726;2023-05-07T07:59:36;100464.81;;;15.59;100.00
71145;BME280;58812;47.698;17.726;2023-05-07T08:02:01;100454.97;;;15.91;100.00
71145;BME280;58812;47.698;17.726;2023-05-07T08:04:26;100443.53;;;16.58;100.00
71145;BME280;58812;47.698;17.726;2023-05-07T08:06:52;100453.25;;;16.90;100.00
71145;BME280;58812;47.698;17.726;2023-05-07T08:09:19;100456.09;;;17.11;100.00
71145;BME280;58812;47.698;17.726;2023-05-07T08:11:45;100464.22;;;16.96;100.00
71145;BME280;58812;47.698;17.726;2023-05-07T08:14:11;100465.09;;;17.26;100.00
71145;BME280;58812;47.698;17.726;2023-05-07T08:16:36;100466.16;;;18.21;99.28
71145;BME280;58812;47.698;17.726;2023-05-07T08:19:02;100475.72;;;18.74;93.84
71145;BME280;58812;47.698;17.726;2023-05-07T08:21:27;100469.84;;;19.96;90.00
71145;BME280;58812;47.698;17.726;2023-05-07T08:23:53;100478.13;;;19.74;87.49
71145;BME280;58812;47.698;17.726;2023-05-07T08:26:18;100475.62;;;19.80;86.43
71145;BME280;58812;47.698;17.726;2023-05-07T08:28:44;100474.78;;;19.79;87.31
71145;BME280;58812;47.698;17.726;2023-05-07T08:31:09;100467.84;;;19.35;88.59
71145;BME280;58812;47.698;17.726;2023-05-07T08:33:35;100474.56;;;19.39;87.54
71145;BME280;58812;47.698;17.726;2023-05-07T08:36:00;100469.19;;;19.53;88.32
71145;BME280;58812;47.698;17.726;2023-05-07T08:38:25;100477.69;;;19.71;86.70
71145;BME280;58812;47.698;17.726;2023-05-07T08:40:51;100468.91;;;19.69;84.38
71145;BME280;58812;47.698;17.726;2023-05-07T08:43:16;100474.09;;;20.05;84.21
71145;BME280;58812;47.698;17.726;2023-05-07T08:45:45;100466.22;;;20.30;83.38
71145;BME280;58812;47.698;17.726;2023-05-07T08:48:17;100469.34;;;19.79;82.24
71145;BME280;58812;47.698;17.726;2023-05-07T08:50:43;100480.91;;;19.88;81.47
71145;BME280;58812;47.698;17.726;2023-05-07T08:53:08;100487.22;;;20.63;81.11
71145;BME280;58812;47.698;17.726;2023-05-07T08:55:34;100480.16;;;20.95;79.69
71145;BME280;58812;47.698;17.726;2023-05-07T08:58:00;100483.47;;;20.70;77.98
71145;BME280;58812;47.698;17.726;2023-05-07T09:00:26;100485.88;;;20.32;78.12
71145;BME280;58812;47.698;17.726;2023-05-07T09:02:53;100490.56;;;20.04;79.57
71145;BME280;58812;47.698;17.726;2023-05-07T09:05:19;100483.31;;;20.11;80.15
71145;BME280;58812;47.698;17.726;2023-05-07T09:07:45;100485.63;;;20.27;78.80
71145;BME280;58812;47.698;17.726;2023-05-07T09:10:11;100480.13;;;21.15;76.59
71145;BME280;58812;47.698;17.726;2023-05-07T09:12:37;100482.22;;;21.39;74.77
71145;BME280;58812;47.698;17.726;2023-05-07T09:15:04;100486.41;;;21.48;70.89
71145;BME280;58812;47.698;17.726;2023-05-07T09:17:31;100485.78;;;22.24;68.00
71145;BME280;58812;47.698;17.726;2023-05-07T09:19:56;100481.28;;;21.85;67.83
71145;BME280;58812;47.698;17.726;2023-05-07T09:22:21;100482.78;;;22.32;66.12
71145;BME280;58812;47.698;17.726;2023-05-07T09:24:48;100485.31;;;22.27;67.00
71145;BME280;58812;47.698;17.726;2023-05-07T09:27:14;100491.56;;;22.73;63.70
71145;BME280;58812;47.698;17.726;2023-05-07T09:29:39;100494.44;;;22.01;65.88
71145;BME280;58812;47.698;17.726;2023-05-07T09:32:06;100488.19;;;21.94;63.24
71145;BME280;58812;47.698;17.726;2023-05-07T09:34:31;100484.16;;;22.80;61.22
71145;BME280;58812;47.698;17.726;2023-05-07T09:37:04;100488.53;;;22.04;61.39
71145;BME280;58812;47.698;17.726;2023-05-07T09:39:43;100478.25;;;22.51;60.80
71145;BME280;58812;47.698;17.726;2023-05-07T09:42:09;100486.12;;;21.70;63.62
71145;BME280;58812;47.698;17.726;2023-05-07T09:44:37;100485.78;;;21.59;65.02
71145;BME280;58812;47.698;17.726;2023-05-07T09:47:05;100469.44;;;22.11;62.72
71145;BME280;58812;47.698;17.726;2023-05-07T09:49:35;100480.00;;;22.71;61.47
71145;BME280;58812;47.698;17.726;2023-05-07T09:52:03;100489.50;;;23.25;56.77
71145;BME280;58812;47.698;17.726;2023-05-07T09:54:32;100481.78;;;22.58;58.30
71145;BME280;58812;47.698;17.726;2023-05-07T09:56:59;100476.16;;;22.53;59.69
71145;BME280;58812;47.698;17.726;2023-05-07T09:59:25;100477.75;;;21.78;61.50
71145;BME280;58812;47.698;17.726;2023-05-07T10:01:52;100482.94;;;21.86;56.12
71145;BME280;58812;47.698;17.726;2023-05-07T10:04:19;100486.69;;;21.98;58.40
71145;BME280;58812;47.698;17.726;2023-05-07T10:06:46;100475.53;;;22.51;56.14
71145;BME280;58812;47.698;17.726;2023-05-07T10:09:12;100484.87;;;21.79;57.04
71145;BME280;58812;47.698;17.726;2023-05-07T10:11:39;100481.25;;;21.92;58.39
71145;BME280;58812;47.698;17.726;2023-05-07T10:14:05;100483.09;;;22.49;58.07
71145;BME280;58812;47.698;17.726;2023-05-07T10:16:32;100485.31;;;22.97;57.32
71145;BME280;58812;47.698;17.726;2023-05-07T10:19:10;100486.81;;;23.61;55.89
71145;BME280;58812;47.698;17.726;2023-05-07T10:21:37;100486.81;;;23.61;53.80
71145;BME280;58812;47.698;17.726;2023-05-07T10:24:06;100481.06;;;23.69;53.40
71145;BME280;58812;47.698;17.726;2023-05-07T10:26:36;100482.28;;;23.92;52.82
71145;BME280;58812;47.698;17.726;2023-05-07T10:34:45;100475.00;;;23.67;51.05
71145;BME280;58812;47.698;17.726;2023-05-07T10:37:12;100480.63;;;23.91;51.65
71145;BME280;58812;47.698;17.726;2023-05-07T10:39:39;100472.53;;;23.16;51.71
71145;BME280;58812;47.698;17.726;2023-05-07T10:42:12;100479.41;;;23.87;53.06
71145;BME280;58812;47.698;17.726;2023-05-07T10:44:38;100475.28;;;23.78;51.41
71145;BME280;58812;47.698;17.726;2023-05-07T10:49:31;100480.53;;;23.97;48.36
71145;BME280;58812;47.698;17.726;2023-05-07T10:52:16;100481.97;;;22.95;51.02
71145;BME280;58812;47.698;17.726;2023-05-07T10:54:42;100479.62;;;24.34;48.86
71145;BME280;58812;47.698;17.726;2023-05-07T10:57:40;100472.22;;;24.22;48.27
71145;BME280;58812;47.698;17.726;2023-05-07T11:05:30;100481.34;;;22.93;48.96
71145;BME280;58812;47.698;17.726;2023-05-07T11:07:57;100480.31;;;23.62;47.60
71145;BME280;58812;47.698;17.726;2023-05-07T11:10:23;100480.69;;;23.66;46.91
71145;BME280;58812;47.698;17.726;2023-05-07T11:13:08;100478.06;;;24.26;47.07
71145;BME280;58812;47.698;17.726;2023-05-07T11:15:38;100476.09;;;24.63;47.14
71145;BME280;58812;47.698;17.726;2023-05-07T11:18:04;100478.75;;;24.40;46.85
71145;BME280;58812;47.698;17.726;2023-05-07T11:20:51;100464.56;;;23.94;47.16
71145;BME280;58812;47.698;17.726;2023-05-07T11:26:03;100476.97;;;23.79;46.73
71145;BME280;58812;47.698;17.726;2023-05-07T11:28:29;100465.28;;;23.28;48.14
71145;BME280;58812;47.698;17.726;2023-05-07T11:30:56;100473.44;;;24.27;46.69
71145;BME280;58812;47.698;17.726;2023-05-07T11:33:22;100466.75;;;24.22;43.93
71145;BME280;58812;47.698;17.726;2023-05-07T11:35:48;100465.22;;;24.57;44.87
71145;BME280;58812;47.698;17.726;2023-05-07T11:38:13;100474.69;;;24.84;44.42
71145;BME280;58812;47.698;17.726;2023-05-07T11:40:52;100466.91;;;24.09;44.13
71145;BME280;58812;47.698;17.726;2023-05-07T11:43:18;100470.09;;;23.51;45.18
71145;BME280;58812;47.698;17.726;2023-05-07T11:45:47;100480.25;;;24.36;45.32
71145;BME280;58812;47.698;17.726;2023-05-07T11:48:13;100477.34;;;24.31;44.56
71145;BME280;58812;47.698;17.726;2023-05-07T11:50:50;100476.72;;;23.98;45.29
71145;BME280;58812;47.698;17.726;2023-05-07T11:53:17;100457.66;;;24.10;45.59
71145;BME280;58812;47.698;17.726;2023-05-07T11:55:42;100461.25;;;23.92;47.40
71145;BME280;58812;47.698;17.726;2023-05-07T11:58:11;100464.91;;;24.35;44.89
71145;BME280;58812;47.698;17.726;2023-05-07T12:00:37;100470.09;;;24.55;44.22
71145;BME280;58812;47.698;17.726;2023-05-07T12:03:06;100458.22;;;24.72;44.02
71145;BME280;58812;47.698;17.726;2023-05-07T12:05:31;100462.66;;;24.73;43.35
71145;BME280;58812;47.698;17.726;2023-05-07T12:08:00;100471.03;;;25.02;43.79
71145;BME280;58812;47.698;17.726;2023-05-07T12:10:25;100465.81;;;24.29;45.82
71145;BME280;58812;47.698;17.726;2023-05-07T12:12:51;100467.50;;;25.13;43.96
71145;BME280;58812;47.698;17.726;2023-05-07T12:15:17;100466.41;;;25.49;43.68
71145;BME280;58812;47.698;17.726;2023-05-07T12:17:43;100457.56;;;24.17;46.00
71145;BME280;58812;47.698;17.726;2023-05-07T12:20:09;100464.44;;;23.71;46.90
71145;BME280;58812;47.698;17.726;2023-05-07T12:22:36;100463.53;;;23.34;48.14
71145;BME280;58812;47.698;17.726;2023-05-07T12:25:01;100463.47;;;23.84;47.86
71145;BME280;58812;47.698;17.726;2023-05-07T12:27:28;100473.75;;;24.00;47.89
71145;BME280;58812;47.698;17.726;2023-05-07T12:29:53;100457.91;;;23.29;47.45
71145;BME280;58812;47.698;17.726;2023-05-07T12:32:20;100460.22;;;23.32;47.33
71145;BME280;58812;47.698;17.726;2023-05-07T12:34:49;100459.59;;;24.21;46.08
71145;BME280;58812;47.698;17.726;2023-05-07T12:37:15;100449.97;;;24.91;45.15
71145;BME280;58812;47.698;17.726;2023-05-07T12:39:59;100455.94;;;25.23;44.13
71145;BME280;58812;47.698;17.726;2023-05-07T12:42:32;100454.66;;;26.29;42.05
71145;BME280;58812;47.698;17.726;2023-05-07T12:44:58;100458.09;;;25.33;43.43